createdAt,value
2023-01-23T00:00:01.824Z,101094.53
2023-01-23T00:00:54.643Z,101092.66
2023-01-23T00:01:36.513Z,101081.31
2023-01-23T00:02:18.184Z,101084.16
2023-01-23T00:03:02.199Z,101051.84
2023-01-23T00:03:44.590Z,101084.66
2023-01-23T00:04:26.284Z,101019.31
2023-01-23T00:05:08.253Z,101045.69
2023-01-23T00:05:57.670Z,101086.19
2023-01-23T00:06:40.744Z,101078.91
2023-01-23T00:07:22.391Z,101083.00
2023-01-23T00:08:04.105Z,101032.97
2023-01-23T00:08:47.079Z,101079.00
2023-01-23T00:09:28.796Z,101084.50
2023-01-23T00:10:11.192Z,101019.72
2023-01-23T00:10:53.252Z,101088.41
2023-01-23T00:11:34.930Z,101069.38
2023-01-23T00:12:16.576Z,101070.69
2023-01-23T00:12:58.219Z,101078.78
2023-01-23T00:13:40.075Z,101081.31
2023-01-23T00:14:22.524Z,101071.22
2023-01-23T00:15:07.566Z,101068.72
2023-01-23T00:15:49.433Z,101065.81
2023-01-23T00:16:32.601Z,101089.38
2023-01-23T00:17:17.121Z,101091.16
2023-01-23T00:17:59.234Z,101076.72
2023-01-23T00:18:40.968Z,101090.13
2023-01-23T00:19:24.838Z,101064.88
2023-01-23T00:20:08.716Z,101040.63
2023-01-23T00:20:50.350Z,101072.81
2023-01-23T00:21:32.007Z,101043.81
2023-01-23T00:22:15.294Z,101069.19
2023-01-23T00:22:56.945Z,100986.88
2023-01-23T00:23:41.412Z,101039.91
2023-01-23T00:24:22.998Z,101050.06
2023-01-23T00:25:05.595Z,101075.97
2023-01-23T00:25:47.254Z,101031.50
2023-01-23T00:26:32.795Z,101019.56
2023-01-23T00:27:15.319Z,101049.63
2023-01-23T00:27:56.964Z,101069.91
2023-01-23T00:28:38.717Z,101041.38
2023-01-23T00:29:20.314Z,101069.91
2023-01-23T00:30:01.974Z,101048.28
2023-01-23T00:30:43.652Z,101071.34
2023-01-23T00:31:28.094Z,101042.63
2023-01-23T00:32:11.485Z,101080.41
2023-01-23T00:32:53.124Z,101074.81
2023-01-23T00:33:34.884Z,101034.22
2023-01-23T00:34:16.596Z,100992.28
2023-01-23T00:34:58.177Z,101071.69
2023-01-23T00:35:39.868Z,101061.03
2023-01-23T00:36:21.495Z,101053.13
2023-01-23T00:37:03.390Z,101054.03
2023-01-23T00:37:45.094Z,101044.59
2023-01-23T00:38:27.126Z,101047.59
2023-01-23T00:39:15.161Z,101042.34
2023-01-23T00:39:58.983Z,101053.81
2023-01-23T00:40:40.573Z,101054.66
2023-01-23T00:41:22.290Z,101066.50
2023-01-23T00:42:04.020Z,101052.13
2023-01-23T00:42:46.227Z,101062.94
2023-01-23T00:43:28.653Z,101061.19
2023-01-23T00:44:10.274Z,101012.53
2023-01-23T00:44:51.872Z,101067.25
2023-01-23T00:45:33.732Z,101059.03
2023-01-23T00:46:15.366Z,100994.34
2023-01-23T00:46:58.355Z,101063.56
2023-01-23T00:47:39.986Z,101060.66
2023-01-23T00:48:21.682Z,101075.31
2023-01-23T00:49:03.747Z,101054.44
2023-01-23T00:49:45.321Z,101066.78
2023-01-23T00:50:26.900Z,101071.72
2023-01-23T00:51:08.725Z,101055.13
2023-01-23T00:51:50.441Z,101078.38
2023-01-23T00:52:32.070Z,101078.56
2023-01-23T00:53:13.810Z,101070.06
2023-01-23T00:53:55.654Z,101078.94
2023-01-23T00:54:38.165Z,101078.31
2023-01-23T00:55:19.754Z,101069.72
2023-01-23T00:56:01.679Z,101079.41
2023-01-23T00:56:44.090Z,101071.75
2023-01-23T00:57:25.761Z,101039.22
2023-01-23T00:58:08.545Z,101025.06
2023-01-23T00:58:50.939Z,100995.81
2023-01-23T00:59:32.637Z,101069.91
2023-01-23T01:00:14.643Z,101085.31
2023-01-23T01:00:56.350Z,101088.94
2023-01-23T01:01:38.151Z,101047.91
2023-01-23T01:02:19.879Z,101054.91
2023-01-23T01:03:01.790Z,101079.91
2023-01-23T01:03:44.200Z,101075.78
2023-01-23T01:04:25.910Z,101072.00
2023-01-23T01:05:07.903Z,101052.59
2023-01-23T01:05:49.509Z,101058.56
2023-01-23T01:06:31.226Z,101050.06
2023-01-23T01:07:13.423Z,101060.34
2023-01-23T01:07:55.011Z,101064.25
2023-01-23T01:08:36.686Z,101032.16
2023-01-23T01:09:18.350Z,101071.06
2023-01-23T01:10:02.449Z,101060.03
2023-01-23T01:10:44.278Z,101074.41
2023-01-23T01:11:26.478Z,101082.34
2023-01-23T01:12:08.198Z,101021.53
2023-01-23T01:12:49.821Z,101084.13
2023-01-23T01:13:31.724Z,101070.97
2023-01-23T01:14:13.632Z,101022.44
2023-01-23T01:14:55.253Z,101065.16
2023-01-23T01:15:37.286Z,101080.09
2023-01-23T01:16:19.652Z,101077.56
2023-01-23T01:17:01.356Z,101073.56
2023-01-23T01:17:44.159Z,101065.91
2023-01-23T01:18:25.822Z,101084.56
2023-01-23T01:19:07.385Z,101093.06
2023-01-23T01:19:48.988Z,101086.81
2023-01-23T01:20:30.753Z,101084.00
2023-01-23T01:21:15.967Z,101089.97
2023-01-23T01:21:57.625Z,101084.66
2023-01-23T01:22:39.428Z,101080.25
2023-01-23T01:23:21.386Z,101068.72
2023-01-23T01:24:03.025Z,100991.22
2023-01-23T01:24:44.638Z,101086.97
2023-01-23T01:25:26.957Z,101076.91
2023-01-23T01:26:09.821Z,101077.28
2023-01-23T01:26:51.400Z,101081.53
2023-01-23T01:27:32.971Z,101071.75
2023-01-23T01:28:14.649Z,101090.22
2023-01-23T01:28:57.013Z,101084.06
2023-01-23T01:29:38.630Z,101059.19
2023-01-23T01:30:20.625Z,101044.19
2023-01-23T01:31:12.783Z,101092.75
2023-01-23T01:31:54.419Z,101090.03
2023-01-23T01:32:37.747Z,101049.56
2023-01-23T01:33:19.362Z,101093.31
2023-01-23T01:34:03.381Z,101085.28
2023-01-23T01:34:44.980Z,101091.22
2023-01-23T01:35:27.134Z,101074.09
2023-01-23T01:36:13.658Z,101004.75
2023-01-23T01:37:01.920Z,101087.31
2023-01-23T01:37:43.604Z,101086.28
2023-01-23T01:38:25.266Z,101080.59
2023-01-23T01:39:06.966Z,101049.84
2023-01-23T01:39:48.679Z,101089.75
2023-01-23T01:40:33.629Z,101049.00
2023-01-23T01:41:16.211Z,101045.34
2023-01-23T01:41:57.807Z,101082.19
2023-01-23T01:42:44.608Z,101089.09
2023-01-23T01:43:27.443Z,101092.53
2023-01-23T01:44:17.192Z,101089.38
2023-01-23T01:45:02.453Z,101108.56
2023-01-23T01:46:13.686Z,101098.13
2023-01-23T01:46:55.430Z,101071.47
2023-01-23T01:47:37.726Z,101111.09
2023-01-23T01:48:21.625Z,101092.25
2023-01-23T01:49:18.530Z,101097.84
2023-01-23T01:50:04.710Z,101099.50
2023-01-23T01:50:46.414Z,101067.50
2023-01-23T01:51:36.796Z,101101.09
2023-01-23T01:52:20.574Z,101102.78
2023-01-23T01:53:03.546Z,101047.00
2023-01-23T01:53:48.326Z,101085.78
2023-01-23T01:54:38.796Z,101103.31
2023-01-23T01:55:20.491Z,101095.66
2023-01-23T01:56:03.109Z,101086.97
2023-01-23T01:56:51.547Z,101100.50
2023-01-23T01:57:41.533Z,101110.41
2023-01-23T01:58:23.464Z,101093.34
2023-01-23T01:59:06.300Z,101103.22
2023-01-23T01:59:56.384Z,101110.13
2023-01-23T02:00:38.147Z,101088.97
2023-01-23T02:01:20.368Z,101107.50
2023-01-23T02:02:11.159Z,101110.97
2023-01-23T02:02:58.798Z,101097.78
2023-01-23T02:03:42.668Z,101085.41
2023-01-23T02:04:24.363Z,101023.00
2023-01-23T02:05:12.212Z,101097.69
2023-01-23T02:05:53.802Z,101078.41
2023-01-23T02:06:35.732Z,101096.84
2023-01-23T02:07:50.531Z,101092.75
2023-01-23T02:08:42.859Z,101097.28
2023-01-23T02:09:27.546Z,101091.81
2023-01-23T02:10:09.991Z,101110.56
2023-01-23T02:10:55.622Z,101053.50
2023-01-23T02:11:37.475Z,101120.50
2023-01-23T02:12:19.082Z,101060.59
2023-01-23T02:13:32.364Z,101113.97
2023-01-23T02:14:14.479Z,101044.94
2023-01-23T02:14:56.670Z,101119.09
2023-01-23T02:15:39.810Z,101113.88
2023-01-23T02:16:27.387Z,101067.81
2023-01-23T02:17:10.027Z,101106.78
2023-01-23T02:17:54.692Z,101120.03
2023-01-23T02:18:42.584Z,101116.38
2023-01-23T02:19:40.386Z,101078.72
2023-01-23T02:20:23.419Z,101105.91
2023-01-23T02:21:07.733Z,101119.34
2023-01-23T02:21:55.568Z,101093.69
2023-01-23T02:22:43.374Z,101105.13
2023-01-23T02:23:30.320Z,101109.34
2023-01-23T02:24:22.200Z,101113.63
2023-01-23T02:25:21.809Z,101116.25
2023-01-23T02:26:07.326Z,101109.34
2023-01-23T02:26:49.015Z,101120.66
2023-01-23T02:27:30.767Z,101116.34
2023-01-23T02:28:17.168Z,101124.19
2023-01-23T02:28:59.857Z,101020.25
2023-01-23T02:29:48.388Z,101102.56
2023-01-23T02:30:30.580Z,101113.97
2023-01-23T02:31:14.091Z,101129.28
2023-01-23T02:31:56.716Z,101114.50
2023-01-23T02:32:39.448Z,101123.22
2023-01-23T02:33:21.015Z,101109.28
2023-01-23T02:34:04.591Z,101111.81
2023-01-23T02:34:46.244Z,101116.00
2023-01-23T02:35:31.007Z,101090.72
2023-01-23T02:36:21.507Z,101117.56
2023-01-23T02:37:05.193Z,101088.03
2023-01-23T02:37:48.932Z,101109.00
2023-01-23T02:38:35.000Z,101113.72
2023-01-23T02:39:19.214Z,101106.16
2023-01-23T02:40:06.004Z,101102.47
2023-01-23T02:40:49.801Z,101124.00
2023-01-23T02:41:43.552Z,101122.13
2023-01-23T02:42:26.455Z,101097.69
2023-01-23T02:43:16.268Z,101120.34
2023-01-23T02:44:15.273Z,101123.59
2023-01-23T02:44:59.607Z,101119.28
2023-01-23T02:45:41.261Z,101076.63
2023-01-23T02:46:24.866Z,101125.47
2023-01-23T02:47:11.639Z,101079.97
2023-01-23T02:47:53.327Z,101091.91
2023-01-23T02:48:38.209Z,101053.31
2023-01-23T02:49:23.916Z,101122.84
2023-01-23T02:50:06.551Z,101117.63
2023-01-23T02:50:48.264Z,101102.53
2023-01-23T02:51:30.120Z,101121.91
2023-01-23T02:52:11.896Z,101113.31
2023-01-23T02:52:57.848Z,101109.53
2023-01-23T02:53:39.628Z,101083.50
2023-01-23T02:54:22.532Z,101112.78
2023-01-23T02:55:04.541Z,101126.81
2023-01-23T02:55:46.272Z,101110.28
2023-01-23T02:56:28.657Z,101103.66
2023-01-23T02:57:10.413Z,101104.81
2023-01-23T02:57:53.367Z,101106.25
2023-01-23T02:58:53.423Z,101105.41
2023-01-23T02:59:53.638Z,101112.16
2023-01-23T03:00:37.973Z,101097.97
2023-01-23T03:01:19.966Z,101118.31
2023-01-23T03:02:01.813Z,101103.41
2023-01-23T03:02:47.060Z,101078.03
2023-01-23T03:03:30.510Z,101114.41
2023-01-23T03:04:12.238Z,101082.97
2023-01-23T03:04:54.088Z,101113.69
2023-01-23T03:05:35.971Z,101097.09
2023-01-23T03:06:17.928Z,101109.47
2023-01-23T03:07:01.612Z,101078.34
2023-01-23T03:07:43.838Z,101097.34
2023-01-23T03:08:34.200Z,101081.16
2023-01-23T03:09:17.840Z,101114.19
2023-01-23T03:10:00.557Z,101085.53
2023-01-23T03:10:42.986Z,101044.69
2023-01-23T03:11:25.562Z,101082.09
2023-01-23T03:12:08.961Z,101112.88
2023-01-23T03:12:50.589Z,101079.50
2023-01-23T03:13:32.915Z,101121.22
2023-01-23T03:14:17.618Z,101114.00
2023-01-23T03:15:02.597Z,101094.59
2023-01-23T03:15:44.225Z,101120.53
2023-01-23T03:16:25.938Z,101068.84
2023-01-23T03:17:07.713Z,101078.16
2023-01-23T03:17:51.884Z,101109.88
2023-01-23T03:18:40.090Z,101124.06
2023-01-23T03:19:27.395Z,101101.59
2023-01-23T03:20:09.971Z,101117.44
2023-01-23T03:20:51.619Z,101097.22
2023-01-23T03:21:34.454Z,101118.94
2023-01-23T03:22:16.314Z,101089.94
2023-01-23T03:22:57.910Z,101093.91
2023-01-23T03:23:40.396Z,101086.66
2023-01-23T03:24:24.543Z,101113.06
2023-01-23T03:25:09.475Z,101108.97
2023-01-23T03:25:58.361Z,101104.78
2023-01-23T03:26:46.162Z,101108.13
2023-01-23T03:27:28.577Z,101098.78
2023-01-23T03:28:31.673Z,101108.13
2023-01-23T03:29:37.106Z,101111.41
2023-01-23T03:30:21.935Z,101013.66
2023-01-23T03:31:05.799Z,101085.06
2023-01-23T03:31:47.540Z,101105.88
2023-01-23T03:32:30.734Z,101086.66
2023-01-23T03:33:12.386Z,101114.56
2023-01-23T03:33:53.992Z,101081.81
2023-01-23T03:34:36.256Z,101087.22
2023-01-23T03:35:22.501Z,101107.25
2023-01-23T03:36:08.024Z,101097.66
2023-01-23T03:36:52.305Z,101112.28
2023-01-23T03:37:33.927Z,101102.56
2023-01-23T03:38:19.182Z,101112.00
2023-01-23T03:39:20.661Z,101111.91
2023-01-23T03:40:22.009Z,101105.81
2023-01-23T03:41:22.945Z,101116.38
2023-01-23T03:42:04.661Z,101111.91
2023-01-23T03:42:47.143Z,101087.47
2023-01-23T03:43:36.522Z,101103.13
2023-01-23T03:44:21.090Z,101101.63
2023-01-23T03:45:04.069Z,101107.41
2023-01-23T03:45:48.217Z,101103.03
2023-01-23T03:46:29.924Z,101101.94
2023-01-23T03:47:12.842Z,101112.19
2023-01-23T03:47:54.838Z,101085.34
2023-01-23T03:48:36.559Z,101069.00
2023-01-23T03:49:19.520Z,101085.78
2023-01-23T03:50:06.190Z,101114.88
2023-01-23T03:50:51.869Z,101085.03
2023-01-23T03:51:38.255Z,101105.28
2023-01-23T03:52:19.903Z,101078.81
2023-01-23T03:53:01.756Z,101076.19
2023-01-23T03:53:43.419Z,101094.94
2023-01-23T03:54:26.231Z,101097.06
2023-01-23T03:55:09.125Z,101050.16
2023-01-23T03:55:53.875Z,101067.16
2023-01-23T03:56:35.593Z,101105.53
2023-01-23T03:57:18.694Z,101109.94
2023-01-23T03:58:03.122Z,101101.44
2023-01-23T03:58:46.448Z,101065.47
2023-01-23T03:59:28.107Z,101097.28
2023-01-23T04:00:10.633Z,101109.13
2023-01-23T04:01:09.854Z,101057.66
2023-01-23T04:01:54.398Z,101077.47
2023-01-23T04:02:36.119Z,101012.00
2023-01-23T04:03:20.690Z,101053.47
2023-01-23T04:04:05.291Z,101095.75
2023-01-23T04:04:47.100Z,101069.06
2023-01-23T04:05:29.445Z,101042.59
2023-01-23T04:06:13.732Z,101065.34
2023-01-23T04:06:55.707Z,101082.22
2023-01-23T04:07:37.353Z,101075.13
2023-01-23T04:08:19.028Z,101126.53
2023-01-23T04:09:03.463Z,101118.50
2023-01-23T04:09:45.292Z,101098.19
2023-01-23T04:10:27.697Z,101114.97
2023-01-23T04:11:15.152Z,101088.50
2023-01-23T04:11:58.626Z,101082.63
2023-01-23T04:12:43.928Z,101131.09
2023-01-23T04:13:25.535Z,101055.16
2023-01-23T04:14:07.246Z,101066.44
2023-01-23T04:14:48.896Z,101107.81
2023-01-23T04:15:35.231Z,101086.59
2023-01-23T04:16:27.829Z,101097.13
2023-01-23T04:17:12.159Z,101036.69
2023-01-23T04:17:54.333Z,101123.22
2023-01-23T04:18:38.279Z,101099.44
2023-01-23T04:19:20.838Z,101097.50
2023-01-23T04:20:02.636Z,101089.38
2023-01-23T04:20:45.338Z,101085.06
2023-01-23T04:21:28.878Z,101100.97
2023-01-23T04:22:11.562Z,101124.16
2023-01-23T04:22:58.447Z,101134.72
2023-01-23T04:23:41.871Z,101129.72
2023-01-23T04:24:23.670Z,101093.84
2023-01-23T04:25:08.717Z,101130.50
2023-01-23T04:25:51.670Z,101112.53
2023-01-23T04:26:35.017Z,101100.88
2023-01-23T04:27:16.696Z,101092.19
2023-01-23T04:28:01.706Z,101079.91
2023-01-23T04:28:43.444Z,101119.97
2023-01-23T04:29:26.032Z,101110.28
2023-01-23T04:30:09.673Z,101040.91
2023-01-23T04:30:52.359Z,101027.94
2023-01-23T04:31:43.257Z,101089.09
2023-01-23T04:32:27.025Z,101091.97
2023-01-23T04:33:08.739Z,101127.25
2023-01-23T04:33:52.512Z,101137.41
2023-01-23T04:34:36.639Z,101115.22
2023-01-23T04:35:19.171Z,101102.81
2023-01-23T04:36:02.602Z,101103.28
2023-01-23T04:36:45.264Z,101136.31
2023-01-23T04:37:27.462Z,101111.03
2023-01-23T04:38:09.907Z,101133.13
2023-01-23T04:38:52.622Z,101103.69
2023-01-23T04:39:39.440Z,101095.84
2023-01-23T04:40:21.390Z,101053.69
2023-01-23T04:41:08.241Z,101112.34
2023-01-23T04:41:52.510Z,101113.06
2023-01-23T04:42:44.618Z,101132.84
2023-01-23T04:43:39.834Z,101124.66
2023-01-23T04:44:26.859Z,101065.78
2023-01-23T04:45:34.568Z,101105.03
2023-01-23T04:46:43.783Z,101120.06
2023-01-23T04:47:29.449Z,101138.66
2023-01-23T04:48:13.241Z,101142.19
2023-01-23T04:48:54.953Z,101164.47
2023-01-23T04:49:37.998Z,101119.13
2023-01-23T04:50:20.083Z,101142.28
2023-01-23T04:51:02.192Z,101111.03
2023-01-23T04:51:48.187Z,101142.66
2023-01-23T04:52:30.052Z,101160.84
2023-01-23T04:53:13.944Z,101107.31
2023-01-23T04:53:56.412Z,101169.34
2023-01-23T04:54:38.180Z,101125.59
2023-01-23T04:55:19.922Z,101164.13
2023-01-23T04:56:02.139Z,101101.16
2023-01-23T04:56:45.087Z,101167.47
2023-01-23T04:57:27.976Z,101071.75
2023-01-23T04:58:19.054Z,101074.94
2023-01-23T04:59:03.613Z,101136.50
2023-01-23T04:59:45.393Z,101150.38
2023-01-23T05:00:29.386Z,101165.50
2023-01-23T05:01:12.942Z,101085.56
2023-01-23T05:01:54.824Z,101148.53
2023-01-23T05:02:36.922Z,101129.88
2023-01-23T05:03:18.734Z,101103.19
2023-01-23T05:04:02.619Z,101120.53
2023-01-23T05:04:44.477Z,101162.09
2023-01-23T05:05:26.240Z,101168.91
2023-01-23T05:06:11.482Z,101139.19
2023-01-23T05:06:53.116Z,101169.09
2023-01-23T05:07:35.232Z,101146.66
2023-01-23T05:08:26.842Z,101168.38
2023-01-23T05:09:28.149Z,101091.13
2023-01-23T05:10:10.735Z,101165.13
2023-01-23T05:10:52.446Z,101107.47
2023-01-23T05:11:38.054Z,101095.94
2023-01-23T05:12:19.707Z,101147.25
2023-01-23T05:13:01.713Z,101157.69
2023-01-23T05:13:43.450Z,101114.28
2023-01-23T05:14:25.356Z,101147.50
2023-01-23T05:15:08.243Z,101162.44
2023-01-23T05:15:52.765Z,101154.44
2023-01-23T05:16:37.488Z,101154.34
2023-01-23T05:17:44.316Z,101121.78
2023-01-23T05:18:28.890Z,101165.72
2023-01-23T05:19:11.415Z,101167.03
2023-01-23T05:19:53.188Z,101165.16
2023-01-23T05:20:36.900Z,101162.72
2023-01-23T05:21:21.343Z,101171.25
2023-01-23T05:22:02.973Z,101173.94
2023-01-23T05:22:52.375Z,101151.16
2023-01-23T05:23:36.182Z,101104.06
2023-01-23T05:24:20.890Z,101149.50
2023-01-23T05:25:03.561Z,101163.03
2023-01-23T05:25:46.143Z,101118.34
2023-01-23T05:26:27.823Z,101125.16
2023-01-23T05:27:11.216Z,101160.69
2023-01-23T05:27:55.893Z,101120.03
2023-01-23T05:28:40.473Z,101148.88
2023-01-23T05:29:22.103Z,101136.63
2023-01-23T05:30:21.073Z,101079.91
2023-01-23T05:31:09.174Z,101119.63
2023-01-23T05:31:56.875Z,101157.44
2023-01-23T05:32:49.310Z,101154.28
2023-01-23T05:33:33.829Z,101108.91
2023-01-23T05:34:15.698Z,101181.81
2023-01-23T05:34:58.185Z,101171.56
2023-01-23T05:35:45.271Z,101168.19
2023-01-23T05:36:28.220Z,101134.09
2023-01-23T05:37:09.843Z,101138.41
2023-01-23T05:37:54.170Z,101173.22
2023-01-23T05:38:41.492Z,101173.66
2023-01-23T05:39:23.556Z,101169.75
2023-01-23T05:40:08.567Z,101151.84
2023-01-23T05:41:08.845Z,101164.91
2023-01-23T05:42:08.819Z,101162.34
2023-01-23T05:43:09.666Z,101118.38
2023-01-23T05:44:11.583Z,101170.03
2023-01-23T05:45:07.529Z,101172.63
2023-01-23T05:45:55.774Z,101151.72
2023-01-23T05:46:46.737Z,101182.41
2023-01-23T05:47:28.443Z,101148.31
2023-01-23T05:48:15.024Z,101175.00
2023-01-23T05:48:56.764Z,101175.84
2023-01-23T05:49:38.465Z,101173.94
2023-01-23T05:50:22.579Z,101164.97
2023-01-23T05:51:04.877Z,101162.53
2023-01-23T05:51:46.560Z,101176.19
2023-01-23T05:52:28.745Z,101184.69
2023-01-23T05:53:10.868Z,101186.63
2023-01-23T05:53:52.658Z,101188.38
2023-01-23T05:54:34.453Z,101164.09
2023-01-23T05:55:16.450Z,101194.81
2023-01-23T05:56:08.102Z,101189.75
2023-01-23T05:56:57.440Z,101190.59
2023-01-23T05:58:15.931Z,101183.19
2023-01-23T05:59:00.489Z,101174.63
2023-01-23T05:59:58.768Z,101187.22
2023-01-23T06:00:59.242Z,101148.91
2023-01-23T06:02:06.527Z,101139.31
2023-01-23T06:03:10.833Z,101191.16
2023-01-23T06:04:13.045Z,101195.47
2023-01-23T06:05:08.174Z,101198.88
2023-01-23T06:06:13.318Z,101183.97
2023-01-23T06:06:55.001Z,101176.06
2023-01-23T06:07:38.098Z,101146.31
2023-01-23T06:08:23.091Z,101182.38
2023-01-23T06:09:05.760Z,101180.91
2023-01-23T06:09:49.024Z,101178.03
2023-01-23T06:10:30.770Z,101192.81
2023-01-23T06:11:12.376Z,101185.69
2023-01-23T06:11:54.123Z,101185.72
2023-01-23T06:12:35.851Z,101192.28
2023-01-23T06:13:20.593Z,101155.84
2023-01-23T06:14:02.161Z,101122.81
2023-01-23T06:14:47.291Z,101181.72
2023-01-23T06:15:28.968Z,101176.19
2023-01-23T06:16:12.209Z,101179.84
2023-01-23T06:16:53.821Z,101126.56
2023-01-23T06:17:36.488Z,101170.53
2023-01-23T06:18:19.246Z,101176.22
2023-01-23T06:19:01.046Z,101165.56
2023-01-23T06:19:44.960Z,101171.91
2023-01-23T06:20:29.591Z,101140.84
2023-01-23T06:21:11.324Z,101186.66
2023-01-23T06:21:53.688Z,101175.28
2023-01-23T06:22:35.458Z,101182.38
2023-01-23T06:23:21.461Z,101177.41
2023-01-23T06:24:03.208Z,101111.81
2023-01-23T06:24:44.831Z,101166.88
2023-01-23T06:25:26.537Z,101206.25
2023-01-23T06:26:09.924Z,101178.63
2023-01-23T06:26:51.663Z,101199.66
2023-01-23T06:27:33.328Z,101156.97
2023-01-23T06:28:18.857Z,101188.06
2023-01-23T06:29:00.474Z,101198.69
2023-01-23T06:29:42.087Z,101161.16
2023-01-23T06:30:24.454Z,101172.53
2023-01-23T06:31:09.088Z,101197.31
2023-01-23T06:32:12.908Z,101182.88
2023-01-23T06:32:54.552Z,101206.88
2023-01-23T06:33:42.342Z,101147.47
2023-01-23T06:34:29.709Z,101206.38
2023-01-23T06:35:17.164Z,101210.69
2023-01-23T06:36:01.076Z,101205.38
2023-01-23T06:36:42.850Z,101211.44
2023-01-23T06:37:24.509Z,101216.56
2023-01-23T06:38:09.282Z,101157.44
2023-01-23T06:38:51.228Z,101202.19
2023-01-23T06:39:38.332Z,101219.28
2023-01-23T06:40:21.988Z,101213.19
2023-01-23T06:41:24.433Z,101217.66
2023-01-23T06:42:10.349Z,101213.75
2023-01-23T06:42:57.118Z,101154.06
2023-01-23T06:43:38.765Z,101196.00
2023-01-23T06:44:25.057Z,101232.78
2023-01-23T06:45:07.762Z,101149.38
2023-01-23T06:45:50.680Z,101220.66
2023-01-23T06:46:34.629Z,101221.50
2023-01-23T06:47:16.682Z,101189.44
2023-01-23T06:48:00.194Z,101229.13
2023-01-23T06:48:42.858Z,101222.13
2023-01-23T06:49:24.483Z,101223.66
2023-01-23T06:50:07.731Z,101233.16
2023-01-23T06:50:52.178Z,101230.38
2023-01-23T06:51:34.008Z,101229.38
2023-01-23T06:52:15.749Z,101195.63
2023-01-23T06:53:00.174Z,101240.38
2023-01-23T06:53:42.385Z,101224.78
2023-01-23T06:54:24.328Z,101234.03
2023-01-23T06:55:08.261Z,101240.97
2023-01-23T06:55:53.160Z,101220.78
2023-01-23T06:56:34.821Z,101231.59
2023-01-23T06:57:20.542Z,101244.31
2023-01-23T06:58:03.635Z,101235.91
2023-01-23T06:58:46.316Z,101210.59
2023-01-23T06:59:37.584Z,101258.31
2023-01-23T07:00:23.061Z,101241.38
2023-01-23T07:01:12.067Z,101227.41
2023-01-23T07:02:14.237Z,101245.25
2023-01-23T07:03:03.721Z,101265.22
2023-01-23T07:03:45.570Z,101238.69
2023-01-23T07:04:27.820Z,101208.59
2023-01-23T07:05:09.631Z,101280.91
2023-01-23T07:05:51.521Z,101208.69
2023-01-23T07:06:33.128Z,101261.47
2023-01-23T07:07:16.072Z,101270.16
2023-01-23T07:07:58.402Z,101271.09
2023-01-23T07:08:41.521Z,101256.25
2023-01-23T07:09:23.195Z,101270.16
2023-01-23T07:10:15.602Z,101255.78
2023-01-23T07:10:57.255Z,101271.84
2023-01-23T07:11:39.809Z,101256.25
2023-01-23T07:12:24.290Z,101268.13
2023-01-23T07:13:07.954Z,101260.00
2023-01-23T07:13:49.588Z,101275.50
2023-01-23T07:14:31.387Z,101270.94
2023-01-23T07:15:14.725Z,101279.53
2023-01-23T07:15:56.456Z,101279.47
2023-01-23T07:16:38.272Z,101270.09
2023-01-23T07:17:20.296Z,101268.63
2023-01-23T07:18:02.965Z,101224.91
2023-01-23T07:18:48.007Z,101258.34
2023-01-23T07:19:29.657Z,101276.13
2023-01-23T07:20:14.269Z,101209.59
2023-01-23T07:21:00.889Z,101278.53
2023-01-23T07:21:42.497Z,101279.28
2023-01-23T07:22:24.102Z,101285.34
2023-01-23T07:23:05.811Z,101273.28
2023-01-23T07:23:47.528Z,101246.97
2023-01-23T07:24:31.661Z,101274.44
2023-01-23T07:25:13.388Z,101271.59
2023-01-23T07:26:03.552Z,101275.06
2023-01-23T07:26:45.251Z,101255.19
2023-01-23T07:27:27.056Z,101258.00
2023-01-23T07:28:08.691Z,101223.13
2023-01-23T07:28:50.306Z,101246.03
2023-01-23T07:29:31.869Z,101265.19
2023-01-23T07:30:14.263Z,101271.91
2023-01-23T07:30:58.268Z,101274.25
2023-01-23T07:31:39.965Z,101289.75
2023-01-23T07:32:21.600Z,101240.88
2023-01-23T07:33:04.009Z,101280.41
2023-01-23T07:33:45.682Z,101276.94
2023-01-23T07:34:27.965Z,101244.84
2023-01-23T07:35:10.329Z,101279.56
2023-01-23T07:35:51.909Z,101267.72
2023-01-23T07:36:33.529Z,101279.69
2023-01-23T07:37:15.140Z,101264.91
2023-01-23T07:37:56.857Z,101240.53
2023-01-23T07:38:38.500Z,101285.25
2023-01-23T07:39:20.345Z,101270.41
2023-01-23T07:40:02.112Z,101268.63
2023-01-23T07:40:45.226Z,101291.50
2023-01-23T07:41:26.862Z,101261.63
2023-01-23T07:42:08.563Z,101256.66
2023-01-23T07:42:50.342Z,101277.97
2023-01-23T07:43:32.017Z,101298.59
2023-01-23T07:44:17.537Z,101265.25
2023-01-23T07:44:59.136Z,101271.25
2023-01-23T07:45:40.732Z,101263.69
2023-01-23T07:46:25.553Z,101264.31
2023-01-23T07:47:07.183Z,101290.88
2023-01-23T07:47:48.776Z,101280.28
2023-01-23T07:48:33.456Z,101275.53
2023-01-23T07:49:15.735Z,101276.19
2023-01-23T07:49:57.372Z,101240.50
2023-01-23T07:50:39.144Z,101255.53
2023-01-23T07:51:20.781Z,101290.03
2023-01-23T07:52:02.583Z,101272.00
2023-01-23T07:52:49.439Z,101266.31
2023-01-23T07:53:31.414Z,101277.22
2023-01-23T07:54:13.078Z,101274.59
2023-01-23T07:54:54.653Z,101277.69
2023-01-23T07:55:38.813Z,101293.66
2023-01-23T07:56:20.466Z,101283.03
2023-01-23T07:57:02.502Z,101290.66
2023-01-23T07:57:44.112Z,101216.31
2023-01-23T07:58:25.884Z,101274.63
2023-01-23T07:59:07.501Z,101281.97
2023-01-23T07:59:49.119Z,101284.41
2023-01-23T08:00:31.250Z,101277.91
2023-01-23T08:01:13.107Z,101246.59
2023-01-23T08:01:54.772Z,101228.44
2023-01-23T08:02:38.662Z,101253.59
2023-01-23T08:03:23.380Z,101291.88
2023-01-23T08:04:05.052Z,101190.72
2023-01-23T08:04:46.746Z,101288.06
2023-01-23T08:05:28.650Z,101258.81
2023-01-23T08:06:13.420Z,101280.03
2023-01-23T08:06:57.281Z,101278.06
2023-01-23T08:07:41.741Z,101294.63
2023-01-23T08:08:23.316Z,101286.38
2023-01-23T08:09:04.886Z,101237.44
2023-01-23T08:09:46.516Z,101286.88
2023-01-23T08:10:28.138Z,101206.47
2023-01-23T08:11:11.749Z,101294.41
2023-01-23T08:11:53.518Z,101273.41
2023-01-23T08:12:35.088Z,101289.19
2023-01-23T08:13:16.752Z,101270.16
2023-01-23T08:13:58.374Z,101261.25
2023-01-23T08:14:40.815Z,101209.25
2023-01-23T08:15:22.437Z,101257.16
2023-01-23T08:16:04.766Z,101280.97
2023-01-23T08:16:50.911Z,101210.25
2023-01-23T08:17:32.530Z,101276.13
2023-01-23T08:18:14.146Z,101270.91
2023-01-23T08:18:55.793Z,101288.53
2023-01-23T08:19:37.384Z,101248.72
2023-01-23T08:20:19.479Z,101272.94
2023-01-23T08:21:03.104Z,101230.25
2023-01-23T08:21:45.988Z,101290.22
2023-01-23T08:22:27.591Z,101283.22
2023-01-23T08:23:09.370Z,101271.91
2023-01-23T08:23:51.013Z,101281.63
2023-01-23T08:24:32.711Z,101276.31
2023-01-23T08:25:14.378Z,101242.56
2023-01-23T08:25:58.098Z,101271.09